Time;durP1;ratioP1;P1;durP2;ratioP2;P2;SDS_P1;SDS_P2;PMS_P1;PMS_P2;Temp;Humidity;BMP_temperature;BMP_pressure;BME280_temperature;BME280_humidity;BME280_pressure;Samples;Min_cycle;Max_cycle;Signal;HPM_P1;HPM_P2
2023/10/28 00:00:16;;;;;;;4.38;1.80;;;;;;;19.59;52.51;99402.69;4987104;28;20260;-67
2023/10/28 00:02:41;;;;;;;4.45;1.83;;;;;;;19.58;52.53;99399.25;4987108;28;20027;-68
2023/10/28 00:05:07;;;;;;;5.28;1.55;;;;;;;19.57;52.47;99408.16;4986991;28;20565;-68
2023/10/28 00:07:32;;;;;;;4.43;1.75;;;;;;;19.56;52.48;99405.69;4987883;28;20031;-67
2023/10/28 00:09:57;;;;;;;5.00;1.60;;;;;;;19.55;52.56;99404.84;4987031;28;20042;-69
2023/10/28 00:12:23;;;;;;;4.50;1.75;;;;;;;19.55;52.52;99410.16;4987357;28;20035;-67
2023/10/28 00:14:48;;;;;;;5.47;1.70;;;;;;;19.55;52.22;99411.94;4986488;28;20030;-68
2023/10/28 00:17:13;;;;;;;4.97;1.50;;;;;;;19.56;52.37;99408.31;4987205;28;20042;-68
2023/10/28 00:19:38;;;;;;;5.03;1.53;;;;;;;19.55;52.41;99414.59;4987267;28;20034;-69
2023/10/28 00:22:04;;;;;;;5.07;1.70;;;;;;;19.53;52.40;99409.47;4987192;28;20260;-68
2023/10/28 00:24:29;;;;;;;4.93;1.63;;;;;;;19.54;52.52;99402.38;4987000;28;20034;-68
2023/10/28 00:26:55;;;;;;;5.23;1.90;;;;;;;19.53;52.56;99406.00;4987100;28;20257;-67
2023/10/28 00:29:20;;;;;;;4.22;1.55;;;;;;;19.52;52.46;99404.38;4987039;28;20302;-68
2023/10/28 00:31:46;;;;;;;4.93;1.60;;;;;;;19.52;52.40;99404.38;4987084;28;20532;-68
2023/10/28 00:34:12;;;;;;;4.28;1.45;;;;;;;19.51;52.55;99406.19;4986253;28;20471;-68
2023/10/28 00:36:38;;;;;;;3.85;1.60;;;;;;;19.51;52.67;99398.25;4987052;28;20045;-68
2023/10/28 00:39:03;;;;;;;4.57;1.40;;;;;;;19.51;52.76;99408.00;4986872;28;20026;-68
2023/10/28 00:41:28;;;;;;;4.38;1.67;;;;;;;19.51;52.51;99400.06;4986560;28;20760;-68
2023/10/28 00:43:54;;;;;;;8.10;2.00;;;;;;;19.49;52.66;99408.16;4986959;28;20387;-67
2023/10/28 00:46:21;;;;;;;4.30;1.70;;;;;;;19.48;52.36;99410.97;4986685;28;21761;-68
2023/10/28 00:48:46;;;;;;;3.97;1.50;;;;;;;19.48;52.72;99403.06;4986983;28;20049;-70
2023/10/28 00:51:12;;;;;;;5.03;1.30;;;;;;;19.47;52.49;99412.81;4990499;28;20459;-67
2023/10/28 00:53:37;;;;;;;3.78;1.40;;;;;;;19.47;52.44;99410.16;4990549;28;20038;-69
2023/10/28 00:56:03;;;;;;;5.03;1.60;;;;;;;19.47;52.48;99411.97;4990613;28;20463;-68
2023/10/28 00:58:30;;;;;;;3.72;1.30;;;;;;;19.47;52.50;99399.59;4990444;28;20114;-67
2023/10/28 01:00:55;;;;;;;5.65;1.38;;;;;;;19.45;52.49;99403.38;4988911;28;20026;-67
2023/10/28 01:03:20;;;;;;;3.60;1.60;;;;;;;19.45;52.51;99403.38;4990234;28;20030;-68
2023/10/28 01:05:46;;;;;;;4.13;1.30;;;;;;;19.44;52.59;99407.84;4990353;28;20027;-67
2023/10/28 01:08:11;;;;;;;5.88;1.85;;;;;;;19.45;52.67;99412.13;4989929;28;20030;-68
2023/10/28 01:10:39;;;;;;;3.65;1.40;;;;;;;19.44;52.63;99413.13;4989245;28;20026;-67
2023/10/28 01:13:04;;;;;;;4.20;1.23;;;;;;;19.44;52.47;99413.13;4990093;28;20376;-67
2023/10/28 01:15:30;;;;;;;3.22;1.30;;;;;;;19.43;52.40;99411.47;4990023;28;20045;-67
2023/10/28 01:17:57;;;;;;;5.75;1.45;;;;;;;19.43;52.27;99405.38;4990133;28;20068;-68
2023/10/28 01:20:22;;;;;;;3.47;1.35;;;;;;;19.42;52.60;99412.47;4990186;28;20026;-69
2023/10/28 01:22:48;;;;;;;4.90;1.50;;;;;;;19.40;52.59;99402.06;4989706;28;20030;-70
2023/10/28 01:25:13;;;;;;;4.03;1.27;;;;;;;19.42;52.61;99406.38;4989931;28;20041;-68
2023/10/28 01:27:38;;;;;;;3.83;1.40;;;;;;;19.42;52.48;99411.66;4990196;28;20022;-68
2023/10/28 01:30:05;;;;;;;4.65;1.20;;;;;;;19.39;52.54;99405.72;4989725;28;20478;-69
2023/10/28 01:32:31;;;;;;;4.88;1.60;;;;;;;19.39;52.43;99410.16;4989855;28;20042;-67
2023/10/28 01:34:56;;;;;;;3.75;1.40;;;;;;;19.40;52.54;99403.88;5020876;28;20238;-68
2023/10/28 01:37:22;;;;;;;4.35;1.45;;;;;;;19.40;52.53;99406.53;4989826;28;20037;-67
2023/10/28 01:39:52;;;;;;;2.85;1.30;;;;;;;19.38;52.65;99409.34;4987892;28;20030;-68
2023/10/28 01:42:20;;;;;;;4.10;1.50;;;;;;;19.39;52.33;99410.16;4989646;28;20420;-67
2023/10/28 01:44:46;;;;;;;2.90;1.20;;;;;;;19.39;52.57;99412.78;4989537;28;20037;-68
2023/10/28 01:47:11;;;;;;;3.05;1.20;;;;;;;19.37;52.68;99407.69;4989938;28;20038;-67
2023/10/28 01:49:38;;;;;;;3.58;1.08;;;;;;;19.36;52.38;99408.69;4989417;28;20038;-67
2023/10/28 01:52:04;;;;;;;4.63;1.35;;;;;;;19.36;52.49;99408.69;4989564;28;20034;-66
2023/10/28 01:54:30;;;;;;;3.65;1.17;;;;;;;19.37;52.50;99406.88;4989304;28;20057;-67
2023/10/28 01:56:59;;;;;;;4.38;1.40;;;;;;;19.35;52.59;99407.03;4989443;28;20452;-67
2023/10/28 01:59:25;;;;;;;3.85;1.25;;;;;;;19.35;52.41;99406.22;4989564;28;20038;-67
2023/10/28 02:01:51;;;;;;;3.60;1.10;;;;;;;19.36;52.37;99405.22;4988768;28;20046;-66
2023/10/28 02:04:16;;;;;;;3.50;1.23;;;;;;;19.36;52.38;99407.88;4989701;28;20034;-68
2023/10/28 02:06:41;;;;;;;2.33;1.00;;;;;;;19.35;52.49;99400.94;4989524;28;20034;-68
2023/10/28 02:09:08;;;;;;;5.40;1.10;;;;;;;19.35;52.39;99399.09;4989452;28;21623;-68
2023/10/28 02:11:34;;;;;;;3.13;1.02;;;;;;;19.34;52.36;99391.34;4989246;28;20042;-68
2023/10/28 02:14:00;;;;;;;3.28;1.00;;;;;;;19.33;52.37;99393.16;4989069;28;20034;-67
2023/10/28 02:16:25;;;;;;;3.33;1.30;;;;;;;19.32;52.40;99386.22;4989023;28;20033;-67
2023/10/28 02:18:51;;;;;;;3.15;1.00;;;;;;;19.32;52.14;99386.22;4989020;28;20041;-67
2023/10/28 02:21:20;;;;;;;2.85;1.10;;;;;;;19.31;52.23;99392.53;4988853;28;20455;-67
2023/10/28 02:23:45;;;;;;;3.65;1.00;;;;;;;19.32;52.44;99391.50;4988862;28;20034;-67
2023/10/28 02:26:10;;;;;;;3.77;1.10;;;;;;;19.31;52.35;99395.16;4988996;28;20030;-67
2023/10/28 02:28:35;;;;;;;3.55;1.10;;;;;;;19.31;52.38;99397.81;4988514;28;20287;-67
2023/10/28 02:31:01;;;;;;;2.80;1.17;;;;;;;19.31;52.37;99400.44;4988567;28;20026;-67
2023/10/28 02:33:26;;;;;;;3.63;1.02;;;;;;;19.31;52.37;99399.59;4988535;28;20051;-67
2023/10/28 02:35:52;;;;;;;2.08;0.95;;;;;;;19.29;52.45;99397.13;4988493;28;20452;-66
2023/10/28 02:38:17;;;;;;;3.13;1.00;;;;;;;19.28;52.21;99392.84;4988647;28;20037;-67
2023/10/28 02:40:48;;;;;;;2.53;1.02;;;;;;;19.29;52.33;99398.94;4988685;28;20531;-66
2023/10/28 02:43:14;;;;;;;2.72;0.90;;;;;;;19.28;52.67;99399.94;4988629;28;20026;-67
2023/10/28 02:45:39;;;;;;;2.13;0.85;;;;;;;19.27;52.38;99404.41;4988435;28;20030;-67
2023/10/28 02:48:04;;;;;;;3.92;0.90;;;;;;;19.27;52.40;99401.75;4988479;28;20026;-68
2023/10/28 02:50:30;;;;;;;2.90;0.93;;;;;;;19.28;52.22;99402.56;4988314;28;20113;-68
2023/10/28 02:52:59;;;;;;;3.08;0.98;;;;;;;19.28;52.41;99406.06;4988620;28;20034;-66
2023/10/28 02:55:25;;;;;;;2.67;1.02;;;;;;;19.27;52.33;99409.69;4988093;28;20039;-68
2023/10/28 02:57:50;;;;;;;2.45;0.90;;;;;;;19.26;52.35;99405.38;4988171;28;20041;-69
2023/10/28 03:00:16;;;;;;;3.88;1.08;;;;;;;19.26;52.31;99404.56;4988165;28;20029;-67
2023/10/28 03:02:41;;;;;;;3.10;1.15;;;;;;;19.24;52.33;99402.09;4988321;28;20030;-68
2023/10/28 03:05:07;;;;;;;3.25;1.05;;;;;;;19.24;52.37;99407.38;4988115;28;20612;-66
2023/10/28 03:07:32;;;;;;;3.13;1.17;;;;;;;19.25;52.33;99410.84;4988009;28;20125;-68
2023/10/28 03:09:58;;;;;;;2.55;0.93;;;;;;;19.24;52.37;99412.66;4988039;28;21359;-66
2023/10/28 03:12:23;;;;;;;2.25;0.75;;;;;;;19.23;52.36;99408.34;4988019;28;20056;-67
2023/10/28 03:14:48;;;;;;;2.42;0.90;;;;;;;19.23;52.14;99399.63;4987427;28;20034;-66
2023/10/28 03:17:14;;;;;;;3.90;1.00;;;;;;;19.23;52.16;99405.72;4987936;28;20434;-67
2023/10/28 03:19:39;;;;;;;3.10;1.02;;;;;;;19.24;51.68;99411.84;5018694;28;20030;-68
2023/10/28 03:22:04;;;;;;;2.90;0.90;;;;;;;19.23;52.26;99407.53;4987676;28;20080;-68
2023/10/28 03:24:30;;;;;;;1.85;0.80;;;;;;;19.22;52.13;99401.44;4987551;28;20275;-68
2023/10/28 03:26:55;;;;;;;1.67;0.70;;;;;;;19.22;52.21;99406.72;4987080;28;20030;-67
2023/10/28 03:29:20;;;;;;;2.37;1.00;;;;;;;19.21;52.02;99405.88;4987750;28;20057;-67
2023/10/28 03:31:45;;;;;;;2.75;0.90;;;;;;;19.21;52.04;99405.88;4987566;28;20275;-67
2023/10/28 03:34:11;;;;;;;2.63;0.83;;;;;;;19.20;52.04;99406.03;5017740;28;20073;-66
2023/10/28 03:36:36;;;;;;;2.05;0.80;;;;;;;19.21;52.25;99405.88;4987125;28;20264;-67
2023/10/28 03:39:02;;;;;;;2.10;0.85;;;;;;;19.18;51.99;99398.31;4987361;28;20050;-67
2023/10/28 03:41:27;;;;;;;2.75;0.90;;;;;;;19.20;52.20;99406.03;4987347;28;20038;-68
2023/10/28 03:43:52;;;;;;;2.38;0.73;;;;;;;19.18;51.94;99402.75;4987325;28;20053;-67
2023/10/28 03:46:21;;;;;;;2.83;0.90;;;;;;;19.18;52.06;99397.47;4987108;28;20026;-67
2023/10/28 03:48:46;;;;;;;2.83;0.90;;;;;;;19.16;51.82;99400.28;4987428;28;20264;-67
2023/10/28 03:51:12;;;;;;;3.67;0.80;;;;;;;19.18;52.03;99406.25;4987287;28;20985;-67
2023/10/28 03:53:37;;;;;;;3.35;0.90;;;;;;;19.17;51.91;99399.31;4987275;28;20356;-66
2023/10/28 03:56:03;;;;;;;2.67;0.80;;;;;;;19.15;51.95;99393.38;4987340;28;20431;-67
2023/10/28 03:58:28;;;;;;;2.35;0.80;;;;;;;19.16;51.90;99396.81;4987233;28;20062;-66
2023/10/28 04:00:54;;;;;;;1.48;0.77;;;;;;;19.16;52.06;99397.63;4987485;28;20026;-67
2023/10/28 04:03:20;;;;;;;1.77;0.80;;;;;;;19.14;52.08;99394.34;4987375;28;20498;-67
2023/10/28 04:05:47;;;;;;;1.75;0.80;;;;;;;19.16;51.99;99402.91;4987672;28;20436;-67
2023/10/28 04:08:12;;;;;;;2.85;0.77;;;;;;;19.14;52.11;99397.00;4987423;28;20026;-66
2023/10/28 04:10:37;;;;;;;2.05;0.80;;;;;;;19.14;52.00;99397.00;4987482;28;20490;-67
2023/10/28 04:13:03;;;;;;;3.83;0.90;;;;;;;19.13;51.86;99390.03;5018622;28;20546;-69
2023/10/28 04:15:29;;;;;;;3.53;0.80;;;;;;;19.13;51.96;99395.31;4987273;28;20136;-67
2023/10/28 04:17:54;;;;;;;2.15;0.70;;;;;;;19.13;51.76;99386.59;4987137;28;20475;-66
2023/10/28 04:20:20;;;;;;;3.13;0.80;;;;;;;19.13;51.72;99394.50;4986982;28;20053;-67
2023/10/28 04:22:45;;;;;;;2.08;0.90;;;;;;;19.15;51.79;99395.16;4987067;28;20270;-66
2023/10/28 04:25:10;;;;;;;2.00;0.82;;;;;;;19.13;51.86;99382.13;4989229;28;20064;-67
2023/10/28 04:27:35;;;;;;;1.60;0.70;;;;;;;19.12;52.02;99375.22;4991145;28;20030;-66
2023/10/28 04:30:04;;;;;;;2.53;0.90;;;;;;;19.13;51.99;99376.84;4990853;28;20463;-66
2023/10/28 04:32:30;;;;;;;2.90;0.90;;;;;;;19.12;51.81;99375.22;4990787;28;20748;-67
2023/10/28 04:34:55;;;;;;;2.45;0.80;;;;;;;19.12;51.96;99377.00;4990739;28;20077;-66
2023/10/28 04:37:21;;;;;;;3.00;1.00;;;;;;;19.12;51.65;99380.50;4990735;28;20022;-67
2023/10/28 04:39:46;;;;;;;3.10;0.88;;;;;;;19.11;51.84;99376.19;4990704;28;20049;-66
2023/10/28 04:42:11;;;;;;;2.15;0.80;;;;;;;19.12;51.54;99382.28;5022106;28;20085;-66
2023/10/28 04:44:37;;;;;;;1.52;0.75;;;;;;;19.10;51.97;99374.53;4991278;28;20041;-67
2023/10/28 04:47:02;;;;;;;2.13;0.88;;;;;;;19.11;51.70;99380.66;4988914;28;20429;-67
2023/10/28 04:49:31;;;;;;;2.10;0.60;;;;;;;19.10;51.87;99379.00;4990069;28;20053;-67
2023/10/28 04:51:56;;;;;;;1.52;0.70;;;;;;;19.10;51.73;99369.25;5021968;28;20378;-68
2023/10/28 04:54:22;;;;;;;1.83;0.80;;;;;;;19.10;51.58;99371.91;4990512;28;20145;-68
2023/10/28 04:56:49;;;;;;;3.58;0.90;;;;;;;19.08;51.89;99368.59;4990213;28;20490;-67
2023/10/28 04:59:15;;;;;;;2.47;0.88;;;;;;;19.08;51.84;99363.31;4990393;28;20030;-67
2023/10/28 05:01:41;;;;;;;2.85;0.80;;;;;;;19.09;51.93;99372.06;4988626;28;20492;-67
2023/10/28 05:04:08;;;;;;;2.83;0.70;;;;;;;19.07;52.22;99359.03;4990464;28;20134;-66
2023/10/28 05:06:33;;;;;;;1.85;0.75;;;;;;;19.07;51.79;99353.75;4990118;28;20080;-66
2023/10/28 05:08:59;;;;;;;2.13;0.80;;;;;;;19.07;51.83;99359.03;4990362;28;20137;-66
2023/10/28 05:11:25;;;;;;;2.20;0.70;;;;;;;19.08;51.84;99350.13;4990146;28;20076;-67
2023/10/28 05:13:51;;;;;;;2.67;0.80;;;;;;;19.06;51.88;99354.75;4987469;28;20038;-67
2023/10/28 05:16:18;;;;;;;2.80;0.80;;;;;;;19.05;52.00;99344.34;4989264;28;20113;-66
2023/10/28 05:18:43;;;;;;;1.73;0.60;;;;;;;19.07;52.03;99361.66;4989944;28;20041;-67
2023/10/28 05:21:10;;;;;;;1.95;0.70;;;;;;;19.07;51.80;99352.94;4989680;28;20034;-68
2023/10/28 05:23:35;;;;;;;2.25;0.65;;;;;;;19.05;51.94;99358.38;4990029;28;20080;-67
2023/10/28 05:26:01;;;;;;;1.95;0.70;;;;;;;19.08;51.92;99360.69;4990070;28;20113;-67
2023/10/28 05:28:26;;;;;;;1.67;0.70;;;;;;;19.09;52.01;99362.34;4990136;28;20034;-66
2023/10/28 05:30:51;;;;;;;1.58;0.70;;;;;;;19.10;52.05;99356.06;4989832;28;20033;-67
2023/10/28 05:33:17;;;;;;;2.40;0.63;;;;;;;19.13;51.82;99363.63;4989488;28;20034;-67
2023/10/28 05:35:42;;;;;;;1.75;0.60;;;;;;;19.13;51.92;99365.47;4988624;28;20459;-67
2023/10/28 05:38:10;;;;;;;1.77;0.65;;;;;;;19.11;51.96;99360.34;4989622;28;20034;-66
2023/10/28 05:40:35;;;;;;;3.63;0.80;;;;;;;19.13;52.20;99365.47;4989773;28;20109;-68
2023/10/28 05:43:00;;;;;;;2.67;0.68;;;;;;;19.13;52.13;99358.34;4989947;28;20161;-67
2023/10/28 05:45:26;;;;;;;1.92;0.70;;;;;;;19.11;52.41;99365.63;4989475;28;20478;-66
2023/10/28 05:47:52;;;;;;;4.45;0.93;;;;;;;19.14;52.10;99357.38;4989622;28;20113;-69
2023/10/28 05:50:18;;;;;;;2.83;0.88;;;;;;;19.16;52.09;99365.94;4988941;28;20886;-68
2023/10/28 05:52:43;;;;;;;1.98;0.70;;;;;;;19.18;51.86;99366.63;4989428;28;20130;-68
2023/10/28 05:55:12;;;;;;;1.50;0.70;;;;;;;19.19;51.99;99364.81;4989491;28;20045;-67
2023/10/28 05:57:38;;;;;;;2.50;0.70;;;;;;;19.18;51.93;99374.56;4989051;28;20174;-69
2023/10/28 06:00:09;;;;;;;1.95;0.68;;;;;;;19.18;52.02;99368.41;4989391;28;20030;-67
2023/10/28 06:02:36;;;;;;;2.67;0.90;;;;;;;19.20;52.04;99377.84;4989224;28;20030;-70
2023/10/28 06:05:03;;;;;;;1.85;0.57;;;;;;;19.23;52.18;99378.50;4989341;28;20031;-68
2023/10/28 06:07:29;;;;;;;4.18;0.70;;;;;;;19.23;52.05;99386.41;4989037;28;20034;-67
2023/10/28 06:09:54;;;;;;;1.00;0.50;;;;;;;19.23;51.99;99378.50;4987987;28;20046;-67
2023/10/28 06:12:20;;;;;;;2.17;0.70;;;;;;;19.23;52.12;99386.41;4987229;28;20610;-68
2023/10/28 06:14:45;;;;;;;1.27;0.60;;;;;;;19.24;52.15;99380.16;5020399;28;20045;-66
2023/10/28 06:17:10;;;;;;;1.95;0.60;;;;;;;19.24;52.16;99388.88;4988619;28;20022;-67
2023/10/28 06:19:36;;;;;;;3.60;0.70;;;;;;;19.25;52.04;99387.91;4989020;28;20470;-67
2023/10/28 06:22:01;;;;;;;2.67;0.80;;;;;;;19.25;52.31;99392.34;4988763;28;20041;-67
2023/10/28 06:24:27;;;;;;;3.47;0.70;;;;;;;19.23;52.47;99386.41;4988657;28;20037;-66
2023/10/28 06:26:52;;;;;;;3.15;0.90;;;;;;;19.26;52.41;99386.09;4987792;28;20030;-67
2023/10/28 06:29:18;;;;;;;5.00;1.10;;;;;;;19.25;52.59;99389.69;4988284;28;20113;-66
2023/10/28 06:31:44;;;;;;;3.60;0.68;;;;;;;19.28;52.48;99397.28;4988487;28;20157;-66
2023/10/28 06:34:10;;;;;;;1.90;0.80;;;;;;;19.30;52.82;99397.97;4988392;28;20141;-67
2023/10/28 06:36:35;;;;;;;3.30;0.80;;;;;;;19.30;52.81;99390.06;4988526;28;20460;-66
2023/10/28 06:39:00;;;;;;;4.82;0.80;;;;;;;19.30;53.10;99396.16;4987561;28;20034;-67
2023/10/28 06:41:26;;;;;;;1.98;0.80;;;;;;;19.32;52.64;99396.78;4986283;28;20069;-68
2023/10/28 06:43:52;;;;;;;1.60;0.90;;;;;;;19.35;52.76;99388.53;4987803;28;20041;-67
2023/10/28 06:46:18;;;;;;;3.30;0.90;;;;;;;19.37;52.79;99396.28;4988174;28;20042;-66
2023/10/28 06:48:43;;;;;;;2.95;0.75;;;;;;;19.36;52.82;99387.56;4988065;28;20037;-66
2023/10/28 06:51:10;;;;;;;2.67;0.70;;;;;;;19.35;52.91;99391.19;4988291;28;20058;-65
2023/10/28 06:53:35;;;;;;;1.73;0.65;;;;;;;19.35;52.91;99391.19;4988235;28;20314;-67
2023/10/28 06:56:04;;;;;;;2.28;0.90;;;;;;;19.38;52.72;99392.66;4987987;28;20030;-66
2023/10/28 06:58:29;;;;;;;3.10;0.60;;;;;;;19.36;53.28;99398.13;4988145;28;20040;-65
2023/10/28 07:00:55;;;;;;;2.93;0.80;;;;;;;19.38;53.37;99396.13;4987835;28;20034;-66
2023/10/28 07:03:20;;;;;;;3.67;0.63;;;;;;;19.38;53.13;99395.31;4988187;28;20616;-66
2023/10/28 07:05:46;;;;;;;2.53;0.73;;;;;;;19.40;53.07;99395.97;4988220;28;20110;-66
2023/10/28 07:08:11;;;;;;;2.63;0.68;;;;;;;19.39;53.38;99402.22;4988006;28;20360;-67
2023/10/28 07:10:37;;;;;;;1.95;0.70;;;;;;;19.39;53.50;99400.44;4987740;28;20027;-66
2023/10/28 07:13:02;;;;;;;2.20;0.80;;;;;;;19.40;53.36;99398.59;4987728;28;20149;-66
2023/10/28 07:15:27;;;;;;;2.53;0.70;;;;;;;19.42;53.35;99401.06;4987899;28;20030;-67
2023/10/28 07:17:54;;;;;;;2.13;0.70;;;;;;;19.41;53.46;99400.25;4987900;28;20030;-67
2023/10/28 07:20:20;;;;;;;1.65;0.60;;;;;;;19.40;53.32;99395.97;4987962;28;20045;-67
2023/10/28 07:22:46;;;;;;;2.60;0.75;;;;;;;19.43;53.62;99408.03;4987701;28;20468;-67
2023/10/28 07:25:11;;;;;;;2.17;0.70;;;;;;;19.43;53.45;99411.47;4987697;28;20034;-67
2023/10/28 07:27:37;;;;;;;2.95;0.70;;;;;;;19.43;53.57;99411.47;4986991;28;20034;-66
2023/10/28 07:30:03;;;;;;;3.83;0.80;;;;;;;19.43;54.02;99405.38;4987342;28;20041;-66
2023/10/28 07:32:30;;;;;;;3.05;0.80;;;;;;;19.43;53.73;99410.66;4987291;28;20030;-66
2023/10/28 07:34:55;;;;;;;2.72;0.90;;;;;;;19.45;53.50;99411.31;4986373;28;20950;-70
2023/10/28 07:37:21;;;;;;;2.05;0.68;;;;;;;19.46;53.42;99416.44;5018451;28;20948;-68
2023/10/28 07:39:46;;;;;;;2.40;0.70;;;;;;;19.46;53.27;99419.06;5018123;28;20125;-66
2023/10/28 07:42:11;;;;;;;2.03;0.88;;;;;;;19.47;53.33;99420.72;4986752;28;20256;-67
2023/10/28 07:44:37;;;;;;;3.05;0.70;;;;;;;19.47;53.47;99430.47;4987443;28;20034;-67
2023/10/28 07:47:03;;;;;;;3.65;0.85;;;;;;;19.46;53.37;99424.34;4986932;28;20030;-69
2023/10/28 07:49:28;;;;;;;3.42;0.70;;;;;;;19.47;53.35;99435.75;4987282;28;20038;-66
2023/10/28 07:51:54;;;;;;;1.80;0.85;;;;;;;19.47;53.46;99427.81;4987364;28;20482;-68
2023/10/28 07:54:19;;;;;;;5.32;0.90;;;;;;;19.47;53.38;99436.59;4987290;28;20061;-68
2023/10/28 07:56:45;;;;;;;2.03;0.80;;;;;;;19.47;53.55;99436.59;4987167;28;20022;-68
2023/10/28 07:59:10;;;;;;;4.70;0.80;;;;;;;19.45;53.49;99435.91;4986440;28;20050;-68
2023/10/28 08:01:35;;;;;;;5.28;0.80;;;;;;;19.48;53.25;99442.69;4987080;28;20348;-68
2023/10/28 08:04:04;;;;;;;2.35;0.70;;;;;;;19.47;53.48;99446.31;4987372;28;20030;-67
2023/10/28 08:06:30;;;;;;;3.78;0.80;;;;;;;19.46;53.61;99453.41;4987772;28;20058;-67
2023/10/28 08:08:55;;;;;;;3.10;0.90;;;;;;;19.45;53.43;99451.75;4987327;28;20104;-67
2023/10/28 08:11:24;;;;;;;1.80;0.55;;;;;;;19.46;53.39;99449.97;4986875;28;20027;-67
2023/10/28 08:13:49;;;;;;;3.22;1.10;;;;;;;19.47;53.59;99451.59;4987062;28;20034;-68
2023/10/28 08:16:18;;;;;;;2.10;0.90;;;;;;;19.48;53.59;99456.72;4986401;28;20065;-67
2023/10/28 08:18:45;;;;;;;3.67;1.10;;;;;;;19.48;53.65;99458.53;4985906;28;20502;-68
2023/10/28 08:21:10;;;;;;;4.13;0.98;;;;;;;19.49;53.66;99458.38;4986841;28;20038;-68
2023/10/28 08:23:38;;;;;;;2.03;0.70;;;;;;;19.47;53.63;99454.22;4987357;28;20034;-68
2023/10/28 08:26:05;;;;;;;5.20;1.00;;;;;;;19.46;53.74;99461.34;4986797;28;20030;-69
2023/10/28 08:28:31;;;;;;;3.20;1.10;;;;;;;19.47;53.63;99467.44;4987113;28;20475;-68
2023/10/28 08:30:56;;;;;;;2.70;0.73;;;;;;;19.48;53.65;99459.34;4987220;28;20077;-71
2023/10/28 08:33:22;;;;;;;2.58;0.77;;;;;;;19.46;53.60;99461.34;4987028;28;20066;-65
2023/10/28 08:35:48;;;;;;;3.22;0.77;;;;;;;19.46;53.64;99460.53;4987158;28;20058;-66
2023/10/28 08:38:23;;;;;;;3.08;1.10;;;;;;;19.50;53.57;99464.47;4987002;28;20022;-70
2023/10/28 08:40:50;;;;;;;3.25;0.70;;;;;;;19.50;53.49;99472.41;4987026;28;20037;-68
2023/10/28 08:43:16;;;;;;;2.53;0.80;;;;;;;19.51;53.51;99466.94;4986937;28;20065;-69
2023/10/28 08:45:42;;;;;;;4.53;0.90;;;;;;;19.50;53.55;99470.59;4981904;28;20039;-69
2023/10/28 08:48:10;;;;;;;3.05;0.90;;;;;;;19.47;53.83;99467.44;4985836;28;20031;-67
2023/10/28 08:50:38;;;;;;;2.78;0.80;;;;;;;19.40;54.07;99481.31;4986266;28;20029;-70
2023/10/28 08:53:03;;;;;;;2.25;0.80;;;;;;;19.37;54.21;99479.00;4985669;28;20109;-67
2023/10/28 08:55:31;;;;;;;2.50;0.80;;;;;;;19.34;54.29;99478.50;4985570;28;20075;-70
2023/10/28 08:57:57;;;;;;;3.28;0.95;;;;;;;19.32;54.57;99478.69;4985809;28;20493;-69
2023/10/28 09:00:26;;;;;;;4.22;0.88;;;;;;;19.30;54.44;99488.59;4985724;28;20049;-71
2023/10/28 09:02:54;;;;;;;1.35;0.60;;;;;;;19.27;54.64;99481.00;4984702;28;20104;-71
2023/10/28 09:05:21;;;;;;;3.50;0.85;;;;;;;19.27;54.67;99488.09;4985661;28;20038;-70
2023/10/28 09:07:46;;;;;;;2.95;0.80;;;;;;;19.25;54.60;99485.63;4985912;28;20034;-68
2023/10/28 09:10:12;;;;;;;2.85;0.90;;;;;;;19.23;54.82;99487.59;4986723;28;20114;-70
2023/10/28 09:12:39;;;;;;;4.35;0.85;;;;;;;19.24;54.74;99489.25;4989721;28;20070;-68
2023/10/28 09:15:05;;;;;;;4.97;0.93;;;;;;;19.25;54.47;99485.63;4989676;28;20065;-68
2023/10/28 09:17:31;;;;;;;2.70;0.80;;;;;;;19.34;54.52;99489.09;4989294;28;20037;-70
2023/10/28 09:19:56;;;;;;;3.00;0.90;;;;;;;19.33;54.52;99493.56;4989199;28;20739;-69
2023/10/28 09:22:23;;;;;;;4.97;1.02;;;;;;;19.32;54.63;99494.53;4989430;28;20046;-70
2023/10/28 09:24:53;;;;;;;2.92;0.77;;;;;;;19.30;55.12;99498.34;4989358;28;20041;-68
2023/10/28 09:27:19;;;;;;;7.45;1.27;;;;;;;19.34;54.74;99502.28;4989268;28;20034;-69
2023/10/28 09:29:45;;;;;;;4.53;0.85;;;;;;;19.32;54.60;99499.00;4989301;28;20137;-69
2023/10/28 09:32:13;;;;;;;3.30;0.93;;;;;;;19.31;54.67;99499.97;4985866;28;20478;-70
2023/10/28 09:34:40;;;;;;;3.28;1.00;;;;;;;19.34;54.50;99499.66;4987162;28;20066;-69
2023/10/28 09:37:06;;;;;;;3.75;0.90;;;;;;;19.35;54.48;99503.97;4986738;28;20121;-69
2023/10/28 09:39:33;;;;;;;3.92;1.00;;;;;;;19.35;54.37;99496.84;4986772;28;20046;-73
2023/10/28 09:41:59;;;;;;;3.28;0.82;;;;;;;19.35;54.33;99498.66;4989189;28;20719;-72
2023/10/28 09:44:25;;;;;;;3.08;0.70;;;;;;;19.37;54.24;99499.31;4990064;28;21082;-71
2023/10/28 09:46:58;;;;;;;5.55;1.10;;;;;;;19.35;54.48;99498.66;4989971;28;20037;-69
2023/10/28 09:49:27;;;;;;;2.72;0.70;;;;;;;19.37;54.29;99499.31;4988233;28;20118;-70
2023/10/28 09:51:58;;;;;;;2.95;0.80;;;;;;;19.38;54.57;99498.34;4988522;28;20057;-70
2023/10/28 09:54:28;;;;;;;3.35;0.90;;;;;;;19.35;54.63;99493.38;4989086;28;20582;-71
2023/10/28 09:56:59;;;;;;;3.22;0.73;;;;;;;19.32;54.64;99494.53;4985432;28;20065;-69
2023/10/28 09:59:27;;;;;;;3.17;0.73;;;;;;;19.31;54.51;99498.19;4987910;28;20070;-69
2023/10/28 10:02:13;;;;;;;3.88;0.80;;;;;;;19.32;54.71;99491.88;4983986;28;20044;-66
2023/10/28 10:04:49;;;;;;;3.85;0.90;;;;;;;19.32;54.81;99489.25;4984563;28;20132;-69
2023/10/28 10:07:16;;;;;;;3.40;0.98;;;;;;;19.33;54.82;99496.19;4987914;28;20104;-69
2023/10/28 10:09:42;;;;;;;3.15;1.10;;;;;;;19.33;54.70;99488.28;4988658;28;20062;-68
2023/10/28 10:12:08;;;;;;;2.08;0.77;;;;;;;19.33;54.62;99498.03;4987894;28;20042;-68
2023/10/28 10:14:37;;;;;;;5.07;1.27;;;;;;;19.34;54.54;99499.66;4987888;28;20044;-68
2023/10/28 10:17:21;;;;;;;3.95;0.95;;;;;;;19.31;54.58;99497.34;4984591;28;20113;-67
2023/10/28 10:19:48;;;;;;;3.80;1.00;;;;;;;19.36;54.52;99509.06;4988147;28;20045;-68
2023/10/28 10:22:15;;;;;;;4.03;0.88;;;;;;;19.37;54.58;99517.81;4985619;28;20394;-68
2023/10/28 10:24:49;;;;;;;4.05;0.93;;;;;;;19.37;54.38;99517.81;4987909;28;20030;-69
2023/10/28 10:27:15;;;;;;;5.47;1.50;;;;;;;19.44;54.38;99513.53;4987716;28;20040;-68
2023/10/28 10:29:41;;;;;;;3.20;1.00;;;;;;;19.45;54.39;99514.34;4987854;28;20113;-69
2023/10/28 10:32:15;;;;;;;3.97;0.90;;;;;;;19.48;54.16;99512.19;4987758;28;20097;-69
2023/10/28 10:34:41;;;;;;;3.78;1.00;;;;;;;19.49;54.10;99513.88;4986037;28;20488;-69
2023/10/28 10:37:09;;;;;;;3.65;0.90;;;;;;;19.51;53.83;99511.06;4987067;28;20121;-67
2023/10/28 10:39:43;;;;;;;3.72;0.93;;;;;;;19.52;54.05;99516.16;4987729;28;20565;-68
2023/10/28 10:42:10;;;;;;;3.58;1.00;;;;;;;19.54;53.98;99516.81;4987120;28;20096;-68
2023/10/28 10:44:37;;;;;;;6.40;1.20;;;;;;;19.55;54.03;99507.91;4987365;28;20077;-68
2023/10/28 10:47:04;;;;;;;5.63;1.40;;;;;;;19.54;54.33;99529.22;4987049;28;20034;-69
2023/10/28 10:49:31;;;;;;;6.78;1.17;;;;;;;19.48;54.31;99500.81;4984189;28;20058;-69
2023/10/28 10:51:59;;;;;;;5.20;1.08;;;;;;;19.43;54.58;99514.53;4987522;28;20023;-69
2023/10/28 10:54:31;;;;;;;5.13;1.25;;;;;;;19.42;54.63;99512.03;4987122;28;20034;-69
2023/10/28 10:56:58;;;;;;;6.20;1.17;;;;;;;19.39;54.55;99510.53;4987344;28;20439;-70
2023/10/28 10:59:28;;;;;;;9.88;1.42;;;;;;;19.39;54.49;99508.75;4987506;28;20068;-70
2023/10/28 11:01:55;;;;;;;7.28;1.45;;;;;;;19.38;54.57;99504.44;4987386;28;20092;-68
2023/10/28 11:04:20;;;;;;;8.00;1.52;;;;;;;19.40;54.60;99504.28;4987309;28;20037;-69
2023/10/28 11:06:45;;;;;;;5.27;1.20;;;;;;;19.39;54.58;99500.81;4987378;28;20026;-68
2023/10/28 11:09:15;;;;;;;5.75;1.10;;;;;;;19.40;54.89;99499.00;4987366;28;20306;-69
2023/10/28 11:11:40;;;;;;;3.15;1.00;;;;;;;19.40;54.74;99497.16;4987403;28;20061;-70
2023/10/28 11:14:06;;;;;;;5.90;0.90;;;;;;;19.40;54.57;99489.25;4987308;28;20069;-71
2023/10/28 11:16:32;;;;;;;6.93;1.40;;;;;;;19.40;54.81;99497.16;4987273;28;20046;-68
2023/10/28 11:19:02;;;;;;;3.75;1.00;;;;;;;19.38;54.84;99501.81;4986824;28;20631;-68
2023/10/28 11:21:32;;;;;;;5.90;1.17;;;;;;;19.39;54.78;99489.41;4987168;28;20036;-70
2023/10/28 11:23:58;;;;;;;5.25;1.27;;;;;;;19.41;54.82;99498.00;4987564;28;20080;-68
2023/10/28 11:26:24;;;;;;;4.80;1.10;;;;;;;19.39;54.75;99497.34;4987250;28;20044;-70
2023/10/28 11:28:49;;;;;;;6.32;1.20;;;;;;;19.37;52.84;99492.22;4985724;28;20069;-69